Hafnia Lotte — 9HA4201 — position and weather

sailwx.info

Track history (hours):
 
Tides and Currents Weather Stations Pressure Air Temp Water Temp Dewpoint Dewpoint Depression Visibility Wind Speed Wind Dir Waves Ship Positions

Hafnia Lotte

Last reported at 2017-Nov-20 00:26 UTC. Time now 2017-Nov-22 13:14 UTC.
Position N 48°31' W 006°09'.

Length 183 m; draft 11.4 m.

Type: Tanker. MMSI: 249329000.

Date/timePositionNaut miles runAvg speedWind from/ knotsBaromVisibWave heightAir tempDewpointWater temp
2017-Nov-20 00:26N 48°31' W 006°09'511.5
2017-Nov-19 23:58N 48°35' W 006°05'511.7
2017-Nov-19 23:30N 48°40' W 006°01'612.1
2017-Nov-19 22:59N 48°45' W 005°56'612.5
2017-Nov-19 22:30N 48°50' W 005°51'612.4
2017-Nov-19 22:00N 48°55' W 005°45'612.7
2017-Nov-19 21:30N 48°58' W 005°37'612.5
2017-Nov-19 21:00N 49°02' W 005°29'1012.2
2017-Nov-19 20:11N 49°07' W 005°16'610.6
2017-Nov-19 19:36N 49°10' W 005°08'210.3
2017-Nov-19 19:24N 49°11' W 005°05'511.3
2017-Nov-19 18:58N 49°14' W 004°58'510.9
2017-Nov-19 18:30N 49°16' W 004°52'510.5
2017-Nov-19 18:00N 49°19' W 004°45'510.4
2017-Nov-19 17:29N 49°22' W 004°38'510.1
2017-Nov-19 17:00N 49°24' W 004°31'810.2
2017-Nov-19 16:12N 49°28' W 004°20'1210.9
2017-Nov-19 15:06N 49°34' W 004°04'311.6
2017-Nov-19 14:50N 49°36' W 004°00'2412.8
2017-Nov-19 12:55N 49°48' W 003°28'613.5
2017-Nov-19 12:30N 49°51' W 003°20'1313.2
2017-Nov-19 11:31N 49°58' W 003°03'013.0
2017-Nov-19 11:30N 49°58' W 003°03'612.4
2017-Nov-19 11:00N 49°60' W 002°54'612.0
2017-Nov-19 10:30N 50°01' W 002°45'611.3
2017-Nov-19 10:00N 50°03' W 002°36'18 9.6
2017-Nov-19 08:06N 50°08' W 002°08'1 8.6
2017-Nov-19 08:01N 50°08' W 002°07'4 8.6
2017-Nov-19 07:30N 50°09' W 002°01'4 8.9
2017-Nov-19 07:00N 50°10' W 001°54'5 9.5
2017-Nov-19 06:30N 50°11' W 001°47'510.2
2017-Nov-19 06:00N 50°13' W 001°39'611.1
2017-Nov-19 05:30N 50°14' W 001°31'612.2
2017-Nov-19 05:01N 50°16' W 001°22'713.2
2017-Nov-19 04:27N 50°17' W 001°11'3114.3
2017-Nov-19 02:17N 50°25' W 000°24'413.7
2017-Nov-19 02:00N 50°26' W 000°18'713.4
2017-Nov-19 01:30N 50°28' W 000°08'613.0
2017-Nov-19 01:00N 50°30' E 000°02'612.7
2017-Nov-19 00:31N 50°32' E 000°12'612.3
2017-Nov-19 00:00N 50°34' E 000°21'611.9
2017-Nov-18 23:30N 50°35' E 000°30'511.1
2017-Nov-18 23:00N 50°38' E 000°38'611.1
2017-Nov-18 22:30N 50°41' E 000°45'510.9
2017-Nov-18 22:00N 50°44' E 000°52'510.9
2017-Nov-18 21:30N 50°47' E 000°59'611.2
2017-Nov-18 21:00N 50°51' E 001°06'612.1
2017-Nov-18 20:30N 50°55' E 001°12'713.4
2017-Nov-18 19:58N 51°00' E 001°20'714.6
2017-Nov-18 19:30N 51°05' E 001°29'815.2
2017-Nov-18 19:01N 51°09' E 001°38'713.8
2017-Nov-18 18:30N 51°14' E 001°46'713.2
2017-Nov-18 18:00N 51°20' E 001°51'612.3
2017-Nov-18 17:30N 51°25' E 001°55'611.2
2017-Nov-18 17:00N 51°30' E 002°01'510.9
2017-Nov-18 16:30N 51°34' E 002°07'510.5
2017-Nov-18 16:00N 51°37' E 002°13'510.2
2017-Nov-18 15:30N 51°41' E 002°19'11 9.3
2017-Nov-18 14:20N 51°49' E 002°31'135 6.9
2017-Nov-17 18:51N 53°40' E 000°24'3 7.9
2017-Nov-17 18:28N 53°37' E 000°22'511.3
2017-Nov-17 18:00N 53°34' E 000°16'510.3
2017-Nov-17 17:30N 53°33' E 000°07'510.6
2017-Nov-17 17:00N 53°37' W 000°00'4 8.8
2017-Nov-17 16:30N 53°37' W 000°07'1 2.6
2017-Nov-17 16:00N 53°38' W 000°09'0 0.0
2017-Nov-17 15:29N 53°38' W 000°09'0 0.0
2017-Nov-17 14:59N 53°38' W 000°09'0 0.0
2017-Nov-17 14:29N 53°38' W 000°09'0 0.0
2017-Nov-17 13:59N 53°38' W 000°09'0 0.0
2017-Nov-17 13:29N 53°38' W 000°09'0 0.0
2017-Nov-17 12:59N 53°38' W 000°09'0 0.0
2017-Nov-17 12:29N 53°38' W 000°09'0 0.0
2017-Nov-17 11:59N 53°38' W 000°09'0 0.0
2017-Nov-17 11:29N 53°38' W 000°09'0 0.0
2017-Nov-17 10:59N 53°38' W 000°09'0 0.0
2017-Nov-17 10:29N 53°38' W 000°09'0 0.0
2017-Nov-17 09:59N 53°38' W 000°09'0 0.0
2017-Nov-17 09:29N 53°38' W 000°09'0 0.0
2017-Nov-17 08:59N 53°38' W 000°09'0 0.0
2017-Nov-17 08:29N 53°38' W 000°09'0 0.0
2017-Nov-17 07:59N 53°38' W 000°09'0 0.0
2017-Nov-17 07:29N 53°38' W 000°09'0 0.0
2017-Nov-17 06:59N 53°38' W 000°09'0 0.0
2017-Nov-17 06:29N 53°38' W 000°09'0 0.0
2017-Nov-17 05:59N 53°38' W 000°09'0 0.0
2017-Nov-17 05:26N 53°38' W 000°09'0 0.0
2017-Nov-17 04:56N 53°38' W 000°09'0 0.0
2017-Nov-17 04:29N 53°38' W 000°09'0 0.0
2017-Nov-17 03:56N 53°38' W 000°09'0 0.0
2017-Nov-17 03:26N 53°38' W 000°09'0 0.0
2017-Nov-17 02:59N 53°38' W 000°09'0 0.0
2017-Nov-17 02:29N 53°38' W 000°09'0 0.0
2017-Nov-17 01:53N 53°38' W 000°09'0 0.0
2017-Nov-17 01:29N 53°38' W 000°09'0 0.0
2017-Nov-17 00:53N 53°38' W 000°09'0 0.0
2017-Nov-17 00:29N 53°38' W 000°09'0 0.0
2017-Nov-16 23:59N 53°38' W 000°09'0 0.0
2017-Nov-16 23:29N 53°38' W 000°09'0 0.0
2017-Nov-16 22:59N 53°38' W 000°09'0 0.0
2017-Nov-16 22:29N 53°38' W 000°09'0 0.0
2017-Nov-16 21:59N 53°38' W 000°09'0 0.0
2017-Nov-16 21:29N 53°38' W 000°09'0 0.0
2017-Nov-16 20:59N 53°38' W 000°09'0 0.0
2017-Nov-16 20:26N 53°38' W 000°09'0 0.0
2017-Nov-16 19:59N 53°38' W 000°09'0 0.0
2017-Nov-16 19:23N 53°38' W 000°09'0 0.0
2017-Nov-16 18:59N 53°38' W 000°09'0 0.0
2017-Nov-16 18:29N 53°38' W 000°09'0 0.0
2017-Nov-16 17:59N 53°38' W 000°09'0 0.0
2017-Nov-16 17:29N 53°38' W 000°09'0 0.0
2017-Nov-16 16:41N 53°38' W 000°09'0 0.0
2017-Nov-16 16:29N 53°38' W 000°09'0 0.0
2017-Nov-16 15:59N 53°38' W 000°09'0 0.0
2017-Nov-16 15:26N 53°38' W 000°09'0 0.0
2017-Nov-16 14:59N 53°38' W 000°09'0 0.0
2017-Nov-16 14:26N 53°38' W 000°09'0 0.0
2017-Nov-16 13:56N 53°38' W 000°09'0 0.0
2017-Nov-16 13:29N 53°38' W 000°09'0 0.0
2017-Nov-16 12:59N 53°38' W 000°09'0 0.0
2017-Nov-16 12:29N 53°38' W 000°09'0 0.0
2017-Nov-16 11:59N 53°38' W 000°09'0 0.0
2017-Nov-16 11:26N 53°38' W 000°09'0 0.0
2017-Nov-16 10:59N 53°38' W 000°09'0 0.0
2017-Nov-16 10:29N 53°38' W 000°09'0 0.0
2017-Nov-16 09:59N 53°38' W 000°09'0 0.0
2017-Nov-16 09:29N 53°38' W 000°09'0 0.0
2017-Nov-16 08:56N 53°38' W 000°09'0 0.0
2017-Nov-16 08:29N 53°38' W 000°09'0 0.0
2017-Nov-16 07:56N 53°38' W 000°09'0 0.0
2017-Nov-16 07:14N 53°38' W 000°09'0 0.0
2017-Nov-16 06:59N 53°38' W 000°09'0 0.0
2017-Nov-16 06:29N 53°38' W 000°09'0 0.0
2017-Nov-16 05:59N 53°38' W 000°09'0 0.0
2017-Nov-16 05:26N 53°38' W 000°09'0 0.0
2017-Nov-16 04:59N 53°38' W 000°09'0 0.0
2017-Nov-16 04:29N 53°38' W 000°09'0 0.0
2017-Nov-16 03:56N 53°38' W 000°09'0 0.0
2017-Nov-16 03:26N 53°38' W 000°09'0 0.0
2017-Nov-16 02:53N 53°38' W 000°09'0 0.0
2017-Nov-16 02:29N 53°38' W 000°09'0 0.0
2017-Nov-16 01:59N 53°38' W 000°09'0 0.0
2017-Nov-16 01:29N 53°38' W 000°09'0 0.0
2017-Nov-16 00:59N 53°38' W 000°09'0 0.0
2017-Nov-16 00:26N 53°38' W 000°09'0 0.0
2017-Nov-15 23:59N 53°38' W 000°09'0 0.0
2017-Nov-15 23:29N 53°38' W 000°09'0 0.0
2017-Nov-15 22:56N 53°38' W 000°09'0 0.0
2017-Nov-15 22:26N 53°38' W 000°09'0 0.0
2017-Nov-15 21:56N 53°38' W 000°09'0 0.0
2017-Nov-15 21:26N 53°38' W 000°09'0 0.0
2017-Nov-15 20:53N 53°38' W 000°09'0 0.0
2017-Nov-15 20:29N 53°38' W 000°09'0 0.0
2017-Nov-15 19:53N 53°38' W 000°09'0 0.0
2017-Nov-15 19:29N 53°38' W 000°09'0 0.0
2017-Nov-15 18:56N 53°38' W 000°09'0 0.0
2017-Nov-15 18:29N 53°38' W 000°09'0 0.0
2017-Nov-15 17:59N 53°38' W 000°09'0 0.0
2017-Nov-15 17:23N 53°38' W 000°09'0 0.0
2017-Nov-15 16:56N 53°38' W 000°09'0 0.0
2017-Nov-15 16:29N 53°38' W 000°09'0 0.0
2017-Nov-15 15:59N 53°38' W 000°09'0 0.0
2017-Nov-15 15:26N 53°38' W 000°09'0 0.0
2017-Nov-15 14:59N 53°38' W 000°09'0 0.0
2017-Nov-15 14:29N 53°38' W 000°09'0 0.0
2017-Nov-15 13:59N 53°38' W 000°09'0 0.0
2017-Nov-15 13:26N 53°38' W 000°09'0 0.0
2017-Nov-15 12:59N 53°38' W 000°09'0 0.0
2017-Nov-15 12:29N 53°38' W 000°09'0 0.0
2017-Nov-15 11:59N 53°38' W 000°09'0 0.0
2017-Nov-15 11:26N 53°38' W 000°09'0 0.0
2017-Nov-15 10:59N 53°38' W 000°09'0 0.0
2017-Nov-15 10:29N 53°38' W 000°09'0 0.0
2017-Nov-15 09:59N 53°38' W 000°09'0 0.0
2017-Nov-15 09:26N 53°38' W 000°09'0 0.0
2017-Nov-15 08:59N 53°38' W 000°09'0 0.0
2017-Nov-15 08:29N 53°38' W 000°09'0 0.0
2017-Nov-15 07:59N 53°38' W 000°09'0 0.0
2017-Nov-15 07:29N 53°38' W 000°09'0 0.0
2017-Nov-15 06:59N 53°38' W 000°09'0 0.0
2017-Nov-15 06:29N 53°38' W 000°09'0 0.0
2017-Nov-15 05:59N 53°38' W 000°09'0 0.0
2017-Nov-15 05:29N 53°38' W 000°09'0 0.0
2017-Nov-15 04:56N 53°38' W 000°09'0 0.0
2017-Nov-15 04:29N 53°38' W 000°09'0 0.0
2017-Nov-15 03:59N 53°38' W 000°09'0 0.0
2017-Nov-15 03:29N 53°38' W 000°09'0 0.0
2017-Nov-15 02:59N 53°38' W 000°09'0 0.0
2017-Nov-15 02:26N 53°38' W 000°09'0 0.0
2017-Nov-15 01:56N 53°38' W 000°09'0 0.0
2017-Nov-15 01:26N 53°38' W 000°09'0 0.0
2017-Nov-15 00:53N 53°38' W 000°09'0 0.0
2017-Nov-15 00:29N 53°38' W 000°09'0 0.0
2017-Nov-14 23:56N 53°38' W 000°09'0 0.0
2017-Nov-14 23:29N 53°38' W 000°09'0 0.0
2017-Nov-14 22:59N 53°38' W 000°09'0 0.0
2017-Nov-14 22:29N 53°38' W 000°09'0 0.0
2017-Nov-14 21:59N 53°38' W 000°09'0 0.0
2017-Nov-14 21:29N 53°38' W 000°09'0 0.0
2017-Nov-14 20:59N 53°38' W 000°09'0 0.0
2017-Nov-14 20:26N 53°38' W 000°09'0 0.0
2017-Nov-14 19:59N 53°38' W 000°09'0 0.0
2017-Nov-14 19:23N 53°38' W 000°09'0 0.0
2017-Nov-14 18:50N 53°38' W 000°09'0 0.0
2017-Nov-14 18:26N 53°38' W 000°09'0 0.0
2017-Nov-14 17:53N 53°38' W 000°09'0 0.0
2017-Nov-14 17:29N 53°38' W 000°09'0 0.0
2017-Nov-14 16:59N 53°38' W 000°09'0 0.0
2017-Nov-14 16:29N 53°38' W 000°09'0 0.0
2017-Nov-14 15:59N 53°38' W 000°09'0 0.0
2017-Nov-14 15:29N 53°38' W 000°09'0 0.0
2017-Nov-14 14:59N 53°38' W 000°09'0 0.0
2017-Nov-14 14:29N 53°38' W 000°09'0 0.0
2017-Nov-14 13:59N 53°38' W 000°09'0 0.0
2017-Nov-14 13:29N 53°38' W 000°09'0 0.0
2017-Nov-14 12:59N 53°38' W 000°09'0 0.0
2017-Nov-14 12:26N 53°38' W 000°09'0 0.0
2017-Nov-14 11:59N 53°38' W 000°09'0 0.0
2017-Nov-14 11:26N 53°38' W 000°09'0 0.0
2017-Nov-14 10:59N 53°38' W 000°09'0 0.0
2017-Nov-14 10:29N 53°38' W 000°09'0 0.0
2017-Nov-14 09:59N 53°38' W 000°09'0 0.0
2017-Nov-14 09:26N 53°38' W 000°09'0 0.0
2017-Nov-14 08:59N 53°38' W 000°09'0 0.0
2017-Nov-14 08:29N 53°38' W 000°09'0 0.0
2017-Nov-14 07:59N 53°38' W 000°09'0 0.0
2017-Nov-14 07:26N 53°38' W 000°09'0 0.0
2017-Nov-14 06:59N 53°38' W 000°09'0 0.0
2017-Nov-14 06:29N 53°38' W 000°09'0 0.0
2017-Nov-14 05:59N 53°38' W 000°09'0 0.0
2017-Nov-14 05:29N 53°38' W 000°09'0 0.0
2017-Nov-14 04:56N 53°38' W 000°09'0 0.0
2017-Nov-14 04:29N 53°38' W 000°09'0 0.0
2017-Nov-14 03:59N 53°38' W 000°09'0 0.0
2017-Nov-14 03:29N 53°38' W 000°09'0 0.0
2017-Nov-14 03:00N 53°38' W 000°09'0 0.4
2017-Nov-14 02:30N 53°38' W 000°09'2 4.7
2017-Nov-14 02:01N 53°37' W 000°05'3 6.9
2017-Nov-14 01:30N 53°37' E 000°00'611.3
2017-Nov-14 01:01N 53°34' E 000°08'611.1
2017-Nov-14 00:29N 53°35' E 000°18'910.8
2017-Nov-13 23:41N 53°43' E 000°24'1 2.8
2017-Nov-13 23:30N 53°42' E 000°24'2 3.5
2017-Nov-13 23:00N 53°41' E 000°23'5 5.2
2017-Nov-13 22:06N 53°45' E 000°22'146 5.3
2017-Nov-12 18:29N 51°44' E 002°35'510.2
2017-Nov-12 17:59N 51°40' E 002°30'610.4
2017-Nov-12 17:27N 51°36' E 002°23'510.6
2017-Nov-12 16:58N 51°33' E 002°17'510.3
2017-Nov-12 16:30N 51°29' E 002°12'510.2
2017-Nov-12 16:00N 51°25' E 002°08'510.0
2017-Nov-12 15:30N 51°20' E 002°08'5 9.4
2017-Nov-12 15:00N 51°15' E 002°07'510.1
2017-Nov-12 14:30N 51°12' E 002°00'511.0
2017-Nov-12 14:00N 51°10' E 001°52'611.0
2017-Nov-12 13:30N 51°07' E 001°45'511.0
2017-Nov-12 13:00N 51°03' E 001°39'611.3
2017-Nov-12 12:30N 50°59' E 001°33'611.3
2017-Nov-12 12:00N 50°54' E 001°27'611.6
2017-Nov-12 11:29N 50°48' E 001°25'2911.5
2017-Nov-12 08:56N 50°28' E 000°51'512.6
2017-Nov-12 08:30N 50°27' E 000°43'1212.1
2017-Nov-12 07:29N 50°23' E 000°24'811.6
2017-Nov-12 06:49N 50°21' E 000°13'411.6
2017-Nov-12 06:30N 50°20' E 000°07'611.7
2017-Nov-12 06:00N 50°19' W 000°02'612.0
2017-Nov-12 05:30N 50°17' W 000°11'612.1
2017-Nov-12 05:00N 50°16' W 000°20'611.9
2017-Nov-12 04:30N 50°14' W 000°29'1112.2
2017-Nov-12 03:38N 50°11' W 000°45'412.8
2017-Nov-12 03:20N 50°10' W 000°51'412.8
2017-Nov-12 02:59N 50°09' W 000°57'713.4
2017-Nov-12 02:29N 50°07' W 001°08'613.5
2017-Nov-12 02:00N 50°06' W 001°17'713.7
2017-Nov-12 01:30N 50°04' W 001°28'713.6
2017-Nov-12 01:00N 50°02' W 001°38'713.5
2017-Nov-12 00:30N 50°01' W 001°48'713.1
2017-Nov-12 00:00N 49°59' W 001°58'713.2
2017-Nov-11 23:30N 49°57' W 002°08'1413.1
2017-Nov-11 22:27N 49°53' W 002°29'612.9
2017-Nov-11 22:00N 49°52' W 002°37'612.7
2017-Nov-11 21:30N 49°50' W 002°46'712.4
2017-Nov-11 20:58N 49°47' W 002°56'712.2
2017-Nov-11 20:25N 49°44' W 003°05'512.1
2017-Nov-11 20:00N 49°42' W 003°12'812.1
2017-Nov-11 19:19N 49°37' W 003°23'7311.9
2017-Nov-11 13:13N 49°01' W 004°60'1112.3
2017-Nov-11 12:19N 48°55' W 005°14'612.5
2017-Nov-11 11:52N 48°52' W 005°21'512.8
2017-Nov-11 11:28N 48°49' W 005°28'612.6
2017-Nov-11 11:00N 48°47' W 005°36'812.7
2017-Nov-11 10:23N 48°40' W 005°43'2511.4
2017-Nov-11 08:12N 48°19' W 006°01'312.4
2017-Nov-11 07:56N 48°16' W 006°04'812.9
2017-Nov-11 07:17N 48°09' W 006°11'413.2
2017-Nov-11 06:59N 48°06' W 006°14'613.2
2017-Nov-11 06:30N 48°00' W 006°20'712.9
2017-Nov-11 05:58N 47°54' W 006°25'613.0
2017-Nov-11 05:29N 47°49' W 006°30'912.8
2017-Nov-11 04:49N 47°42' W 006°38'412.7
2017-Nov-11 04:29N 47°39' W 006°41'1012.3
2017-Nov-11 03:42N 47°30' W 006°48'312.0
2017-Nov-11 03:26N 47°28' W 006°51'612.4
2017-Nov-11 02:58N 47°23' W 006°55'613.0
2017-Nov-11 02:29N 47°18' W 007°00'612.8
2017-Nov-11 02:00N 47°12' W 007°06'712.6
2017-Nov-11 01:29N 47°07' W 007°10'1413.0
2017-Nov-11 00:24N 46°55' W 007°20'1213.4
2017-Nov-10 23:31N 46°45' W 007°32'0 0.0
2017-Nov-10 23:30N 46°45' W 007°32'  
Track history (hours):
 
Tides and Currents Weather Stations Pressure Air Temp Water Temp Dewpoint Dewpoint Depression Visibility Wind Speed Wind Dir Waves Ship Positions

Hafnia Lotte

Last reported at 2017-Nov-20 00:26 UTC. Time now 2017-Nov-22 13:14 UTC.
Position N 48°31' W 006°09'.

Length 183 m; draft 11.4 m.

Type: Tanker. MMSI: 249329000.

Date/timePositionNaut miles runAvg speedWind from/ knotsBaromVisibWave heightAir tempDewpointWater temp
2017-Nov-20 00:26N 48°31' W 006°09'511.5
2017-Nov-19 23:58N 48°35' W 006°05'511.7
2017-Nov-19 23:30N 48°40' W 006°01'612.1
2017-Nov-19 22:59N 48°45' W 005°56'612.5
2017-Nov-19 22:30N 48°50' W 005°51'612.4
2017-Nov-19 22:00N 48°55' W 005°45'612.7
2017-Nov-19 21:30N 48°58' W 005°37'612.5
2017-Nov-19 21:00N 49°02' W 005°29'1012.2
2017-Nov-19 20:11N 49°07' W 005°16'610.6
2017-Nov-19 19:36N 49°10' W 005°08'210.3
2017-Nov-19 19:24N 49°11' W 005°05'511.3
2017-Nov-19 18:58N 49°14' W 004°58'510.9
2017-Nov-19 18:30N 49°16' W 004°52'510.5
2017-Nov-19 18:00N 49°19' W 004°45'510.4
2017-Nov-19 17:29N 49°22' W 004°38'510.1
2017-Nov-19 17:00N 49°24' W 004°31'810.2
2017-Nov-19 16:12N 49°28' W 004°20'1210.9
2017-Nov-19 15:06N 49°34' W 004°04'311.6
2017-Nov-19 14:50N 49°36' W 004°00'2412.8
2017-Nov-19 12:55N 49°48' W 003°28'613.5
2017-Nov-19 12:30N 49°51' W 003°20'1313.2
2017-Nov-19 11:31N 49°58' W 003°03'013.0
2017-Nov-19 11:30N 49°58' W 003°03'612.4
2017-Nov-19 11:00N 49°60' W 002°54'612.0
2017-Nov-19 10:30N 50°01' W 002°45'611.3
2017-Nov-19 10:00N 50°03' W 002°36'18 9.6
2017-Nov-19 08:06N 50°08' W 002°08'1 8.6
2017-Nov-19 08:01N 50°08' W 002°07'4 8.6
2017-Nov-19 07:30N 50°09' W 002°01'4 8.9
2017-Nov-19 07:00N 50°10' W 001°54'5 9.5
2017-Nov-19 06:30N 50°11' W 001°47'510.2
2017-Nov-19 06:00N 50°13' W 001°39'611.1
2017-Nov-19 05:30N 50°14' W 001°31'612.2
2017-Nov-19 05:01N 50°16' W 001°22'713.2
2017-Nov-19 04:27N 50°17' W 001°11'3114.3
2017-Nov-19 02:17N 50°25' W 000°24'413.7
2017-Nov-19 02:00N 50°26' W 000°18'713.4
2017-Nov-19 01:30N 50°28' W 000°08'613.0
2017-Nov-19 01:00N 50°30' E 000°02'612.7
2017-Nov-19 00:31N 50°32' E 000°12'612.3
2017-Nov-19 00:00N 50°34' E 000°21'611.9
2017-Nov-18 23:30N 50°35' E 000°30'511.1
2017-Nov-18 23:00N 50°38' E 000°38'611.1
2017-Nov-18 22:30N 50°41' E 000°45'510.9
2017-Nov-18 22:00N 50°44' E 000°52'510.9
2017-Nov-18 21:30N 50°47' E 000°59'611.2
2017-Nov-18 21:00N 50°51' E 001°06'612.1
2017-Nov-18 20:30N 50°55' E 001°12'713.4
2017-Nov-18 19:58N 51°00' E 001°20'714.6
2017-Nov-18 19:30N 51°05' E 001°29'815.2
2017-Nov-18 19:01N 51°09' E 001°38'713.8
2017-Nov-18 18:30N 51°14' E 001°46'713.2
2017-Nov-18 18:00N 51°20' E 001°51'612.3
2017-Nov-18 17:30N 51°25' E 001°55'611.2
2017-Nov-18 17:00N 51°30' E 002°01'510.9
2017-Nov-18 16:30N 51°34' E 002°07'510.5
2017-Nov-18 16:00N 51°37' E 002°13'510.2
2017-Nov-18 15:30N 51°41' E 002°19'11 9.3
2017-Nov-18 14:20N 51°49' E 002°31'135 6.9
2017-Nov-17 18:51N 53°40' E 000°24'3 7.9
2017-Nov-17 18:28N 53°37' E 000°22'511.3
2017-Nov-17 18:00N 53°34' E 000°16'510.3
2017-Nov-17 17:30N 53°33' E 000°07'510.6
2017-Nov-17 17:00N 53°37' W 000°00'4 8.8
2017-Nov-17 16:30N 53°37' W 000°07'1 2.6
2017-Nov-17 16:00N 53°38' W 000°09'0 0.0
2017-Nov-17 15:29N 53°38' W 000°09'0 0.0
2017-Nov-17 14:59N 53°38' W 000°09'0 0.0
2017-Nov-17 14:29N 53°38' W 000°09'0 0.0
2017-Nov-17 13:59N 53°38' W 000°09'0 0.0
2017-Nov-17 13:29N 53°38' W 000°09'0 0.0
2017-Nov-17 12:59N 53°38' W 000°09'0 0.0
2017-Nov-17 12:29N 53°38' W 000°09'0 0.0
2017-Nov-17 11:59N 53°38' W 000°09'0 0.0
2017-Nov-17 11:29N 53°38' W 000°09'0 0.0
2017-Nov-17 10:59N 53°38' W 000°09'0 0.0
2017-Nov-17 10:29N 53°38' W 000°09'0 0.0
2017-Nov-17 09:59N 53°38' W 000°09'0 0.0
2017-Nov-17 09:29N 53°38' W 000°09'0 0.0
2017-Nov-17 08:59N 53°38' W 000°09'0 0.0
2017-Nov-17 08:29N 53°38' W 000°09'0 0.0
2017-Nov-17 07:59N 53°38' W 000°09'0 0.0
2017-Nov-17 07:29N 53°38' W 000°09'0 0.0
2017-Nov-17 06:59N 53°38' W 000°09'0 0.0
2017-Nov-17 06:29N 53°38' W 000°09'0 0.0
2017-Nov-17 05:59N 53°38' W 000°09'0 0.0
2017-Nov-17 05:26N 53°38' W 000°09'0 0.0
2017-Nov-17 04:56N 53°38' W 000°09'0 0.0
2017-Nov-17 04:29N 53°38' W 000°09'0 0.0
2017-Nov-17 03:56N 53°38' W 000°09'0 0.0
2017-Nov-17 03:26N 53°38' W 000°09'0 0.0
2017-Nov-17 02:59N 53°38' W 000°09'0 0.0
2017-Nov-17 02:29N 53°38' W 000°09'0 0.0
2017-Nov-17 01:53N 53°38' W 000°09'0 0.0
2017-Nov-17 01:29N 53°38' W 000°09'0 0.0
2017-Nov-17 00:53N 53°38' W 000°09'0 0.0
2017-Nov-17 00:29N 53°38' W 000°09'0 0.0
2017-Nov-16 23:59N 53°38' W 000°09'0 0.0
2017-Nov-16 23:29N 53°38' W 000°09'0 0.0
2017-Nov-16 22:59N 53°38' W 000°09'0 0.0
2017-Nov-16 22:29N 53°38' W 000°09'0 0.0
2017-Nov-16 21:59N 53°38' W 000°09'0 0.0
2017-Nov-16 21:29N 53°38' W 000°09'0 0.0
2017-Nov-16 20:59N 53°38' W 000°09'0 0.0
2017-Nov-16 20:26N 53°38' W 000°09'0 0.0
2017-Nov-16 19:59N 53°38' W 000°09'0 0.0
2017-Nov-16 19:23N 53°38' W 000°09'0 0.0
2017-Nov-16 18:59N 53°38' W 000°09'0 0.0
2017-Nov-16 18:29N 53°38' W 000°09'0 0.0
2017-Nov-16 17:59N 53°38' W 000°09'0 0.0
2017-Nov-16 17:29N 53°38' W 000°09'0 0.0
2017-Nov-16 16:41N 53°38' W 000°09'0 0.0
2017-Nov-16 16:29N 53°38' W 000°09'0 0.0
2017-Nov-16 15:59N 53°38' W 000°09'0 0.0
2017-Nov-16 15:26N 53°38' W 000°09'0 0.0
2017-Nov-16 14:59N 53°38' W 000°09'0 0.0
2017-Nov-16 14:26N 53°38' W 000°09'0 0.0
2017-Nov-16 13:56N 53°38' W 000°09'0 0.0
2017-Nov-16 13:29N 53°38' W 000°09'0 0.0
2017-Nov-16 12:59N 53°38' W 000°09'0 0.0
2017-Nov-16 12:29N 53°38' W 000°09'0 0.0
2017-Nov-16 11:59N 53°38' W 000°09'0 0.0
2017-Nov-16 11:26N 53°38' W 000°09'0 0.0
2017-Nov-16 10:59N 53°38' W 000°09'0 0.0
2017-Nov-16 10:29N 53°38' W 000°09'0 0.0
2017-Nov-16 09:59N 53°38' W 000°09'0 0.0
2017-Nov-16 09:29N 53°38' W 000°09'0 0.0
2017-Nov-16 08:56N 53°38' W 000°09'0 0.0
2017-Nov-16 08:29N 53°38' W 000°09'0 0.0
2017-Nov-16 07:56N 53°38' W 000°09'0 0.0
2017-Nov-16 07:14N 53°38' W 000°09'0 0.0
2017-Nov-16 06:59N 53°38' W 000°09'0 0.0
2017-Nov-16 06:29N 53°38' W 000°09'0 0.0
2017-Nov-16 05:59N 53°38' W 000°09'0 0.0
2017-Nov-16 05:26N 53°38' W 000°09'0 0.0
2017-Nov-16 04:59N 53°38' W 000°09'0 0.0
2017-Nov-16 04:29N 53°38' W 000°09'0 0.0
2017-Nov-16 03:56N 53°38' W 000°09'0 0.0
2017-Nov-16 03:26N 53°38' W 000°09'0 0.0
2017-Nov-16 02:53N 53°38' W 000°09'0 0.0
2017-Nov-16 02:29N 53°38' W 000°09'0 0.0
2017-Nov-16 01:59N 53°38' W 000°09'0 0.0
2017-Nov-16 01:29N 53°38' W 000°09'0 0.0
2017-Nov-16 00:59N 53°38' W 000°09'0 0.0
2017-Nov-16 00:26N 53°38' W 000°09'0 0.0
2017-Nov-15 23:59N 53°38' W 000°09'0 0.0
2017-Nov-15 23:29N 53°38' W 000°09'0 0.0
2017-Nov-15 22:56N 53°38' W 000°09'0 0.0
2017-Nov-15 22:26N 53°38' W 000°09'0 0.0
2017-Nov-15 21:56N 53°38' W 000°09'0 0.0
2017-Nov-15 21:26N 53°38' W 000°09'0 0.0
2017-Nov-15 20:53N 53°38' W 000°09'0 0.0
2017-Nov-15 20:29N 53°38' W 000°09'0 0.0
2017-Nov-15 19:53N 53°38' W 000°09'0 0.0
2017-Nov-15 19:29N 53°38' W 000°09'0 0.0
2017-Nov-15 18:56N 53°38' W 000°09'0 0.0
2017-Nov-15 18:29N 53°38' W 000°09'0 0.0
2017-Nov-15 17:59N 53°38' W 000°09'0 0.0
2017-Nov-15 17:23N 53°38' W 000°09'0 0.0
2017-Nov-15 16:56N 53°38' W 000°09'0 0.0
2017-Nov-15 16:29N 53°38' W 000°09'0 0.0
2017-Nov-15 15:59N 53°38' W 000°09'0 0.0
2017-Nov-15 15:26N 53°38' W 000°09'0 0.0
2017-Nov-15 14:59N 53°38' W 000°09'0 0.0
2017-Nov-15 14:29N 53°38' W 000°09'0 0.0
2017-Nov-15 13:59N 53°38' W 000°09'0 0.0
2017-Nov-15 13:26N 53°38' W 000°09'0 0.0
2017-Nov-15 12:59N 53°38' W 000°09'0 0.0
2017-Nov-15 12:29N 53°38' W 000°09'0 0.0
2017-Nov-15 11:59N 53°38' W 000°09'0 0.0
2017-Nov-15 11:26N 53°38' W 000°09'0 0.0
2017-Nov-15 10:59N 53°38' W 000°09'0 0.0
2017-Nov-15 10:29N 53°38' W 000°09'0 0.0
2017-Nov-15 09:59N 53°38' W 000°09'0 0.0
2017-Nov-15 09:26N 53°38' W 000°09'0 0.0
2017-Nov-15 08:59N 53°38' W 000°09'0 0.0
2017-Nov-15 08:29N 53°38' W 000°09'0 0.0
2017-Nov-15 07:59N 53°38' W 000°09'0 0.0
2017-Nov-15 07:29N 53°38' W 000°09'0 0.0
2017-Nov-15 06:59N 53°38' W 000°09'0 0.0
2017-Nov-15 06:29N 53°38' W 000°09'0 0.0
2017-Nov-15 05:59N 53°38' W 000°09'0 0.0
2017-Nov-15 05:29N 53°38' W 000°09'0 0.0
2017-Nov-15 04:56N 53°38' W 000°09'0 0.0
2017-Nov-15 04:29N 53°38' W 000°09'0 0.0
2017-Nov-15 03:59N 53°38' W 000°09'0 0.0
2017-Nov-15 03:29N 53°38' W 000°09'0 0.0
2017-Nov-15 02:59N 53°38' W 000°09'0 0.0
2017-Nov-15 02:26N 53°38' W 000°09'0 0.0
2017-Nov-15 01:56N 53°38' W 000°09'0 0.0
2017-Nov-15 01:26N 53°38' W 000°09'0 0.0
2017-Nov-15 00:53N 53°38' W 000°09'0 0.0
2017-Nov-15 00:29N 53°38' W 000°09'0 0.0
2017-Nov-14 23:56N 53°38' W 000°09'0 0.0
2017-Nov-14 23:29N 53°38' W 000°09'0 0.0
2017-Nov-14 22:59N 53°38' W 000°09'0 0.0
2017-Nov-14 22:29N 53°38' W 000°09'0 0.0
2017-Nov-14 21:59N 53°38' W 000°09'0 0.0
2017-Nov-14 21:29N 53°38' W 000°09'0 0.0
2017-Nov-14 20:59N 53°38' W 000°09'0 0.0
2017-Nov-14 20:26N 53°38' W 000°09'0 0.0
2017-Nov-14 19:59N 53°38' W 000°09'0 0.0
2017-Nov-14 19:23N 53°38' W 000°09'0 0.0
2017-Nov-14 18:50N 53°38' W 000°09'0 0.0
2017-Nov-14 18:26N 53°38' W 000°09'0 0.0
2017-Nov-14 17:53N 53°38' W 000°09'0 0.0
2017-Nov-14 17:29N 53°38' W 000°09'0 0.0
2017-Nov-14 16:59N 53°38' W 000°09'0 0.0
2017-Nov-14 16:29N 53°38' W 000°09'0 0.0
2017-Nov-14 15:59N 53°38' W 000°09'0 0.0
2017-Nov-14 15:29N 53°38' W 000°09'0 0.0
2017-Nov-14 14:59N 53°38' W 000°09'0 0.0
2017-Nov-14 14:29N 53°38' W 000°09'0 0.0
2017-Nov-14 13:59N 53°38' W 000°09'0 0.0
2017-Nov-14 13:29N 53°38' W 000°09'0 0.0
2017-Nov-14 12:59N 53°38' W 000°09'0 0.0
2017-Nov-14 12:26N 53°38' W 000°09'0 0.0
2017-Nov-14 11:59N 53°38' W 000°09'0 0.0
2017-Nov-14 11:26N 53°38' W 000°09'0 0.0
2017-Nov-14 10:59N 53°38' W 000°09'0 0.0
2017-Nov-14 10:29N 53°38' W 000°09'0 0.0
2017-Nov-14 09:59N 53°38' W 000°09'0 0.0
2017-Nov-14 09:26N 53°38' W 000°09'0 0.0
2017-Nov-14 08:59N 53°38' W 000°09'0 0.0
2017-Nov-14 08:29N 53°38' W 000°09'0 0.0
2017-Nov-14 07:59N 53°38' W 000°09'0 0.0
2017-Nov-14 07:26N 53°38' W 000°09'0 0.0
2017-Nov-14 06:59N 53°38' W 000°09'0 0.0
2017-Nov-14 06:29N 53°38' W 000°09'0 0.0
2017-Nov-14 05:59N 53°38' W 000°09'0 0.0
2017-Nov-14 05:29N 53°38' W 000°09'0 0.0
2017-Nov-14 04:56N 53°38' W 000°09'0 0.0
2017-Nov-14 04:29N 53°38' W 000°09'0 0.0
2017-Nov-14 03:59N 53°38' W 000°09'0 0.0
2017-Nov-14 03:29N 53°38' W 000°09'0 0.0
2017-Nov-14 03:00N 53°38' W 000°09'0 0.4
2017-Nov-14 02:30N 53°38' W 000°09'2 4.7
2017-Nov-14 02:01N 53°37' W 000°05'3 6.9
2017-Nov-14 01:30N 53°37' E 000°00'611.3
2017-Nov-14 01:01N 53°34' E 000°08'611.1
2017-Nov-14 00:29N 53°35' E 000°18'910.8
2017-Nov-13 23:41N 53°43' E 000°24'1 2.8
2017-Nov-13 23:30N 53°42' E 000°24'2 3.5
2017-Nov-13 23:00N 53°41' E 000°23'5 5.2
2017-Nov-13 22:06N 53°45' E 000°22'146 5.3
2017-Nov-12 18:29N 51°44' E 002°35'510.2
2017-Nov-12 17:59N 51°40' E 002°30'610.4
2017-Nov-12 17:27N 51°36' E 002°23'510.6
2017-Nov-12 16:58N 51°33' E 002°17'510.3
2017-Nov-12 16:30N 51°29' E 002°12'510.2
2017-Nov-12 16:00N 51°25' E 002°08'510.0
2017-Nov-12 15:30N 51°20' E 002°08'5 9.4
2017-Nov-12 15:00N 51°15' E 002°07'510.1
2017-Nov-12 14:30N 51°12' E 002°00'511.0
2017-Nov-12 14:00N 51°10' E 001°52'611.0
2017-Nov-12 13:30N 51°07' E 001°45'511.0
2017-Nov-12 13:00N 51°03' E 001°39'611.3
2017-Nov-12 12:30N 50°59' E 001°33'611.3
2017-Nov-12 12:00N 50°54' E 001°27'611.6
2017-Nov-12 11:29N 50°48' E 001°25'2911.5
2017-Nov-12 08:56N 50°28' E 000°51'512.6
2017-Nov-12 08:30N 50°27' E 000°43'1212.1
2017-Nov-12 07:29N 50°23' E 000°24'811.6
2017-Nov-12 06:49N 50°21' E 000°13'411.6
2017-Nov-12 06:30N 50°20' E 000°07'611.7
2017-Nov-12 06:00N 50°19' W 000°02'612.0
2017-Nov-12 05:30N 50°17' W 000°11'612.1
2017-Nov-12 05:00N 50°16' W 000°20'611.9
2017-Nov-12 04:30N 50°14' W 000°29'1112.2
2017-Nov-12 03:38N 50°11' W 000°45'412.8
2017-Nov-12 03:20N 50°10' W 000°51'412.8
2017-Nov-12 02:59N 50°09' W 000°57'713.4
2017-Nov-12 02:29N 50°07' W 001°08'613.5
2017-Nov-12 02:00N 50°06' W 001°17'713.7
2017-Nov-12 01:30N 50°04' W 001°28'713.6
2017-Nov-12 01:00N 50°02' W 001°38'713.5
2017-Nov-12 00:30N 50°01' W 001°48'713.1
2017-Nov-12 00:00N 49°59' W 001°58'713.2
2017-Nov-11 23:30N 49°57' W 002°08'1413.1
2017-Nov-11 22:27N 49°53' W 002°29'612.9
2017-Nov-11 22:00N 49°52' W 002°37'612.7
2017-Nov-11 21:30N 49°50' W 002°46'712.4
2017-Nov-11 20:58N 49°47' W 002°56'712.2
2017-Nov-11 20:25N 49°44' W 003°05'512.1
2017-Nov-11 20:00N 49°42' W 003°12'812.1
2017-Nov-11 19:19N 49°37' W 003°23'7311.9
2017-Nov-11 13:13N 49°01' W 004°60'1112.3
2017-Nov-11 12:19N 48°55' W 005°14'612.5
2017-Nov-11 11:52N 48°52' W 005°21'512.8
2017-Nov-11 11:28N 48°49' W 005°28'612.6
2017-Nov-11 11:00N 48°47' W 005°36'812.7
2017-Nov-11 10:23N 48°40' W 005°43'2511.4
2017-Nov-11 08:12N 48°19' W 006°01'312.4
2017-Nov-11 07:56N 48°16' W 006°04'812.9
2017-Nov-11 07:17N 48°09' W 006°11'413.2
2017-Nov-11 06:59N 48°06' W 006°14'613.2
2017-Nov-11 06:30N 48°00' W 006°20'712.9
2017-Nov-11 05:58N 47°54' W 006°25'613.0
2017-Nov-11 05:29N 47°49' W 006°30'912.8
2017-Nov-11 04:49N 47°42' W 006°38'412.7
2017-Nov-11 04:29N 47°39' W 006°41'1012.3
2017-Nov-11 03:42N 47°30' W 006°48'312.0
2017-Nov-11 03:26N 47°28' W 006°51'612.4
2017-Nov-11 02:58N 47°23' W 006°55'613.0
2017-Nov-11 02:29N 47°18' W 007°00'612.8
2017-Nov-11 02:00N 47°12' W 007°06'712.6
2017-Nov-11 01:29N 47°07' W 007°10'1413.0
2017-Nov-11 00:24N 46°55' W 007°20'1213.4
2017-Nov-10 23:31N 46°45' W 007°32'0 0.0
2017-Nov-10 23:30N 46°45' W 007°32'  

Dump ship's entire track history